sensor_id;sensor_type;location;lat;lon;timestamp;P1;durP1;ratioP1;P2;durP2;ratioP2
22673;SDS011;11504;43.334;21.918;2022-07-30T00:03:05;16.0;;;16.0;;
22673;SDS011;11504;43.334;21.918;2022-07-30T00:07:41;16.0;;;16.0;;
22673;SDS011;11504;43.334;21.918;2022-07-30T00:12:18;15.0;;;15.0;;
22673;SDS011;11504;43.334;21.918;2022-07-30T00:16:54;15.0;;;15.0;;
22673;SDS011;11504;43.334;21.918;2022-07-30T00:21:31;16.0;;;15.0;;
22673;SDS011;11504;43.334;21.918;2022-07-30T00:26:07;16.0;;;15.0;;
22673;SDS011;11504;43.334;21.918;2022-07-30T00:30:43;16.0;;;15.0;;
22673;SDS011;11504;43.334;21.918;2022-07-30T00:35:20;16.0;;;15.0;;
22673;SDS011;11504;43.334;21.918;2022-07-30T00:39:56;16.0;;;16.0;;
22673;SDS011;11504;43.334;21.918;2022-07-30T00:44:33;16.0;;;16.0;;
22673;SDS011;11504;43.334;21.918;2022-07-30T00:49:09;16.0;;;16.0;;
22673;SDS011;11504;43.334;21.918;2022-07-30T00:53:45;17.0;;;16.0;;
22673;SDS011;11504;43.334;21.918;2022-07-30T00:58:22;17.0;;;16.0;;
22673;SDS011;11504;43.334;21.918;2022-07-30T01:02:58;16.0;;;16.0;;
22673;SDS011;11504;43.334;21.918;2022-07-30T01:07:35;16.0;;;16.0;;
22673;SDS011;11504;43.334;21.918;2022-07-30T01:12:22;16.0;;;15.0;;
22673;SDS011;11504;43.334;21.918;2022-07-30T01:17:03;16.0;;;15.0;;
22673;SDS011;11504;43.334;21.918;2022-07-30T01:21:59;16.0;;;14.0;;
22673;SDS011;11504;43.334;21.918;2022-07-30T01:27:01;16.0;;;14.0;;
22673;SDS011;11504;43.334;21.918;2022-07-30T01:31:46;15.0;;;14.0;;
22673;SDS011;11504;43.334;21.918;2022-07-30T01:36:31;15.0;;;14.0;;
22673;SDS011;11504;43.334;21.918;2022-07-30T01:41:13;14.0;;;14.0;;
22673;SDS011;11504;43.334;21.918;2022-07-30T01:46:01;14.0;;;14.0;;
22673;SDS011;11504;43.334;21.918;2022-07-30T01:50:55;14.0;;;13.0;;
22673;SDS011;11504;43.334;21.918;2022-07-30T01:55:49;14.0;;;13.0;;
22673;SDS011;11504;43.334;21.918;2022-07-30T02:00:43;14.0;;;12.0;;
22673;SDS011;11504;43.334;21.918;2022-07-30T02:05:37;14.0;;;12.0;;
22673;SDS011;11504;43.334;21.918;2022-07-30T02:10:51;13.0;;;12.0;;
22673;SDS011;11504;43.334;21.918;2022-07-30T02:16:06;13.0;;;12.0;;
22673;SDS011;11504;43.334;21.918;2022-07-30T02:21:20;13.0;;;12.0;;
22673;SDS011;11504;43.334;21.918;2022-07-30T02:26:21;13.0;;;12.0;;
22673;SDS011;11504;43.334;21.918;2022-07-30T02:31:11;13.0;;;13.0;;
22673;SDS011;11504;43.334;21.918;2022-07-30T02:36:03;13.0;;;13.0;;
22673;SDS011;11504;43.334;21.918;2022-07-30T02:40:48;12.0;;;12.0;;
22673;SDS011;11504;43.334;21.918;2022-07-30T02:45:29;12.0;;;12.0;;
22673;SDS011;11504;43.334;21.918;2022-07-30T02:50:14;12.0;;;11.0;;
22673;SDS011;11504;43.334;21.918;2022-07-30T02:55:02;12.0;;;11.0;;
22673;SDS011;11504;43.334;21.918;2022-07-30T02:59:43;12.0;;;11.0;;
22673;SDS011;11504;43.334;21.918;2022-07-30T03:04:24;12.0;;;11.0;;
22673;SDS011;11504;43.334;21.918;2022-07-30T03:09:06;12.0;;;11.0;;
22673;SDS011;11504;43.334;21.918;2022-07-30T03:13:45;12.0;;;11.0;;
22673;SDS011;11504;43.334;21.918;2022-07-30T03:18:32;12.0;;;11.0;;
22673;SDS011;11504;43.334;21.918;2022-07-30T03:23:18;12.0;;;11.0;;
22673;SDS011;11504;43.334;21.918;2022-07-30T03:28:02;12.0;;;11.0;;
22673;SDS011;11504;43.334;21.918;2022-07-30T03:32:43;12.0;;;11.0;;
22673;SDS011;11504;43.334;21.918;2022-07-30T03:37:23;12.0;;;11.0;;
22673;SDS011;11504;43.334;21.918;2022-07-30T03:42:05;12.0;;;10.0;;
22673;SDS011;11504;43.334;21.918;2022-07-30T03:46:48;12.0;;;10.0;;
22673;SDS011;11504;43.334;21.918;2022-07-30T03:51:28;11.0;;;10.0;;
22673;SDS011;11504;43.334;21.918;2022-07-30T03:56:07;11.0;;;10.0;;
22673;SDS011;11504;43.334;21.918;2022-07-30T04:00:49;12.0;;;11.0;;
22673;SDS011;11504;43.334;21.918;2022-07-30T04:05:26;12.0;;;11.0;;
22673;SDS011;11504;43.334;21.918;2022-07-30T04:10:05;13.0;;;12.0;;
22673;SDS011;11504;43.334;21.918;2022-07-30T04:14:44;13.0;;;12.0;;
22673;SDS011;11504;43.334;21.918;2022-07-30T04:19:34;13.0;;;12.0;;
22673;SDS011;11504;43.334;21.918;2022-07-30T04:24:26;12.0;;;12.0;;
22673;SDS011;11504;43.334;21.918;2022-07-30T04:29:10;12.0;;;12.0;;
22673;SDS011;11504;43.334;21.918;2022-07-30T04:33:49;11.0;;;11.0;;
22673;SDS011;11504;43.334;21.918;2022-07-30T04:38:26;11.0;;;11.0;;
22673;SDS011;11504;43.334;21.918;2022-07-30T04:43:02;11.0;;;11.0;;
22673;SDS011;11504;43.334;21.918;2022-07-30T04:47:39;11.0;;;11.0;;
22673;SDS011;11504;43.334;21.918;2022-07-30T04:52:21;11.0;;;11.0;;
22673;SDS011;11504;43.334;21.918;2022-07-30T04:57:05;11.0;;;11.0;;
22673;SDS011;11504;43.334;21.918;2022-07-30T05:01:59;10.0;;;10.0;;
22673;SDS011;11504;43.334;21.918;2022-07-30T05:06:50;10.0;;;10.0;;
22673;SDS011;11504;43.334;21.918;2022-07-30T05:11:33;10.0;;;10.0;;
22673;SDS011;11504;43.334;21.918;2022-07-30T05:16:10;10.0;;;10.0;;
22673;SDS011;11504;43.334;21.918;2022-07-30T05:20:47;10.0;;;10.0;;
22673;SDS011;11504;43.334;21.918;2022-07-30T05:25:24;10.0;;;10.0;;
22673;SDS011;11504;43.334;21.918;2022-07-30T05:30:01;11.0;;;10.0;;
22673;SDS011;11504;43.334;21.918;2022-07-30T05:34:38;11.0;;;10.0;;
22673;SDS011;11504;43.334;21.918;2022-07-30T05:39:15;11.0;;;10.0;;
22673;SDS011;11504;43.334;21.918;2022-07-30T05:43:51;10.0;;;10.0;;
22673;SDS011;11504;43.334;21.918;2022-07-30T05:48:28;10.0;;;10.0;;
22673;SDS011;11504;43.334;21.918;2022-07-30T05:53:04;10.0;;;9.0;;
22673;SDS011;11504;43.334;21.918;2022-07-30T05:57:41;10.0;;;9.0;;
22673;SDS011;11504;43.334;21.918;2022-07-30T06:02:17;10.0;;;10.0;;
22673;SDS011;11504;43.334;21.918;2022-07-30T06:06:53;10.0;;;10.0;;
22673;SDS011;11504;43.334;21.918;2022-07-30T06:11:30;11.0;;;10.0;;
22673;SDS011;11504;43.334;21.918;2022-07-30T06:16:06;11.0;;;10.0;;
22673;SDS011;11504;43.334;21.918;2022-07-30T06:20:43;11.0;;;10.0;;
22673;SDS011;11504;43.334;21.918;2022-07-30T06:25:20;11.0;;;10.0;;
22673;SDS011;11504;43.334;21.918;2022-07-30T06:29:57;11.0;;;10.0;;
22673;SDS011;11504;43.334;21.918;2022-07-30T06:34:34;11.0;;;10.0;;
22673;SDS011;11504;43.334;21.918;2022-07-30T06:39:10;11.0;;;10.0;;
22673;SDS011;11504;43.334;21.918;2022-07-30T06:43:47;11.0;;;10.0;;
22673;SDS011;11504;43.334;21.918;2022-07-30T06:48:23;11.0;;;10.0;;
22673;SDS011;11504;43.334;21.918;2022-07-30T06:53:00;11.0;;;11.0;;
22673;SDS011;11504;43.334;21.918;2022-07-30T06:57:36;11.0;;;11.0;;
22673;SDS011;11504;43.334;21.918;2022-07-30T07:02:13;12.0;;;11.0;;
22673;SDS011;11504;43.334;21.918;2022-07-30T07:06:50;12.0;;;11.0;;
22673;SDS011;11504;43.334;21.918;2022-07-30T07:11:27;12.0;;;11.0;;
22673;SDS011;11504;43.334;21.918;2022-07-30T07:16:05;12.0;;;11.0;;
22673;SDS011;11504;43.334;21.918;2022-07-30T07:20:43;12.0;;;12.0;;
22673;SDS011;11504;43.334;21.918;2022-07-30T07:25:20;12.0;;;12.0;;
22673;SDS011;11504;43.334;21.918;2022-07-30T07:29:57;13.0;;;13.0;;
22673;SDS011;11504;43.334;21.918;2022-07-30T07:34:35;13.0;;;13.0;;
22673;SDS011;11504;43.334;21.918;2022-07-30T07:39:12;13.0;;;13.0;;
22673;SDS011;11504;43.334;21.918;2022-07-30T07:43:49;12.0;;;12.0;;
22673;SDS011;11504;43.334;21.918;2022-07-30T07:48:25;12.0;;;12.0;;
22673;SDS011;11504;43.334;21.918;2022-07-30T07:53:03;12.0;;;12.0;;
22673;SDS011;11504;43.334;21.918;2022-07-30T07:57:42;12.0;;;12.0;;
22673;SDS011;11504;43.334;21.918;2022-07-30T08:02:20;12.0;;;12.0;;
22673;SDS011;11504;43.334;21.918;2022-07-30T08:06:56;12.0;;;12.0;;
22673;SDS011;11504;43.334;21.918;2022-07-30T08:11:33;12.0;;;11.0;;
22673;SDS011;11504;43.334;21.918;2022-07-30T08:16:09;12.0;;;11.0;;
22673;SDS011;11504;43.334;21.918;2022-07-30T08:20:45;12.0;;;12.0;;
22673;SDS011;11504;43.334;21.918;2022-07-30T08:25:22;12.0;;;12.0;;
22673;SDS011;11504;43.334;21.918;2022-07-30T08:30:04;12.0;;;12.0;;
22673;SDS011;11504;43.334;21.918;2022-07-30T08:34:43;12.0;;;12.0;;
22673;SDS011;11504;43.334;21.918;2022-07-30T08:39:20;12.0;;;12.0;;
22673;SDS011;11504;43.334;21.918;2022-07-30T08:44:01;14.0;;;13.0;;
22673;SDS011;11504;43.334;21.918;2022-07-30T08:48:42;14.0;;;13.0;;
22673;SDS011;11504;43.334;21.918;2022-07-30T08:53:22;15.0;;;14.0;;
22673;SDS011;11504;43.334;21.918;2022-07-30T08:58:00;15.0;;;14.0;;
22673;SDS011;11504;43.334;21.918;2022-07-30T09:02:40;14.0;;;14.0;;
22673;SDS011;11504;43.334;21.918;2022-07-30T09:07:16;14.0;;;14.0;;
22673;SDS011;11504;43.334;21.918;2022-07-30T09:11:53;14.0;;;14.0;;
22673;SDS011;11504;43.334;21.918;2022-07-30T09:16:29;14.0;;;14.0;;
22673;SDS011;11504;43.334;21.918;2022-07-30T09:21:19;14.0;;;14.0;;
22673;SDS011;11504;43.334;21.918;2022-07-30T09:26:00;14.0;;;14.0;;
22673;SDS011;11504;43.334;21.918;2022-07-30T09:30:51;13.0;;;13.0;;
22673;SDS011;11504;43.334;21.918;2022-07-30T09:35:31;13.0;;;13.0;;
22673;SDS011;11504;43.334;21.918;2022-07-30T09:40:17;14.0;;;13.0;;
22673;SDS011;11504;43.334;21.918;2022-07-30T09:45:08;14.0;;;13.0;;
22673;SDS011;11504;43.334;21.918;2022-07-30T09:50:06;14.0;;;13.0;;
22673;SDS011;11504;43.334;21.918;2022-07-30T09:54:51;14.0;;;13.0;;
22673;SDS011;11504;43.334;21.918;2022-07-30T09:59:31;14.0;;;13.0;;
22673;SDS011;11504;43.334;21.918;2022-07-30T10:04:08;14.0;;;14.0;;
22673;SDS011;11504;43.334;21.918;2022-07-30T10:09:00;14.0;;;14.0;;
22673;SDS011;11504;43.334;21.918;2022-07-30T10:13:41;15.0;;;14.0;;
22673;SDS011;11504;43.334;21.918;2022-07-30T10:18:25;15.0;;;14.0;;
22673;SDS011;11504;43.334;21.918;2022-07-30T10:23:07;15.0;;;14.0;;
22673;SDS011;11504;43.334;21.918;2022-07-30T10:27:47;15.0;;;14.0;;
22673;SDS011;11504;43.334;21.918;2022-07-30T10:32:27;15.0;;;14.0;;
22673;SDS011;11504;43.334;21.918;2022-07-30T10:37:06;15.0;;;14.0;;
22673;SDS011;11504;43.334;21.918;2022-07-30T10:42:13;15.0;;;14.0;;
22673;SDS011;11504;43.334;21.918;2022-07-30T10:47:19;15.0;;;14.0;;
22673;SDS011;11504;43.334;21.918;2022-07-30T10:51:58;15.0;;;15.0;;
22673;SDS011;11504;43.334;21.918;2022-07-30T10:56:36;15.0;;;15.0;;
22673;SDS011;11504;43.334;21.918;2022-07-30T11:01:12;14.0;;;14.0;;
22673;SDS011;11504;43.334;21.918;2022-07-30T11:06:24;14.0;;;14.0;;
22673;SDS011;11504;43.334;21.918;2022-07-30T11:11:43;14.0;;;13.0;;
22673;SDS011;11504;43.334;21.918;2022-07-30T11:16:57;14.0;;;13.0;;
22673;SDS011;11504;43.334;21.918;2022-07-30T11:21:35;15.0;;;14.0;;
22673;SDS011;11504;43.334;21.918;2022-07-30T11:26:50;15.0;;;14.0;;
22673;SDS011;11504;43.334;21.918;2022-07-30T11:31:34;16.0;;;16.0;;
22673;SDS011;11504;43.334;21.918;2022-07-30T11:36:12;16.0;;;16.0;;
22673;SDS011;11504;43.334;21.918;2022-07-30T11:41:09;15.0;;;15.0;;
22673;SDS011;11504;43.334;21.918;2022-07-30T11:45:49;15.0;;;15.0;;
22673;SDS011;11504;43.334;21.918;2022-07-30T11:50:42;14.0;;;14.0;;
22673;SDS011;11504;43.334;21.918;2022-07-30T11:55:28;14.0;;;14.0;;
22673;SDS011;11504;43.334;21.918;2022-07-30T12:00:12;14.0;;;14.0;;
22673;SDS011;11504;43.334;21.918;2022-07-30T12:04:49;14.0;;;14.0;;
22673;SDS011;11504;43.334;21.918;2022-07-30T12:09:27;14.0;;;14.0;;
22673;SDS011;11504;43.334;21.918;2022-07-30T12:14:04;14.0;;;14.0;;
22673;SDS011;11504;43.334;21.918;2022-07-30T12:18:42;14.0;;;14.0;;
22673;SDS011;11504;43.334;21.918;2022-07-30T12:23:26;14.0;;;14.0;;
22673;SDS011;11504;43.334;21.918;2022-07-30T12:28:08;14.0;;;14.0;;
22673;SDS011;11504;43.334;21.918;2022-07-30T12:33:02;14.0;;;13.0;;
22673;SDS011;11504;43.334;21.918;2022-07-30T12:38:03;14.0;;;13.0;;
22673;SDS011;11504;43.334;21.918;2022-07-30T12:42:50;14.0;;;13.0;;
22673;SDS011;11504;43.334;21.918;2022-07-30T12:47:31;14.0;;;13.0;;
22673;SDS011;11504;43.334;21.918;2022-07-30T12:52:08;14.0;;;13.0;;
22673;SDS011;11504;43.334;21.918;2022-07-30T12:57:00;14.0;;;13.0;;
22673;SDS011;11504;43.334;21.918;2022-07-30T13:01:45;14.0;;;12.0;;
22673;SDS011;11504;43.334;21.918;2022-07-30T13:06:22;14.0;;;12.0;;
22673;SDS011;11504;43.334;21.918;2022-07-30T13:11:00;13.0;;;12.0;;
22673;SDS011;11504;43.334;21.918;2022-07-30T13:15:37;13.0;;;12.0;;
22673;SDS011;11504;43.334;21.918;2022-07-30T13:20:17;14.0;;;13.0;;
22673;SDS011;11504;43.334;21.918;2022-07-30T13:24:53;14.0;;;13.0;;
22673;SDS011;11504;43.334;21.918;2022-07-30T13:29:30;14.0;;;13.0;;
22673;SDS011;11504;43.334;21.918;2022-07-30T13:34:06;15.0;;;14.0;;
22673;SDS011;11504;43.334;21.918;2022-07-30T13:38:43;15.0;;;14.0;;
22673;SDS011;11504;43.334;21.918;2022-07-30T13:43:21;14.0;;;12.0;;
22673;SDS011;11504;43.334;21.918;2022-07-30T13:47:59;14.0;;;12.0;;
22673;SDS011;11504;43.334;21.918;2022-07-30T13:52:35;12.0;;;11.0;;
22673;SDS011;11504;43.334;21.918;2022-07-30T13:57:11;12.0;;;11.0;;
22673;SDS011;11504;43.334;21.918;2022-07-30T14:01:48;12.0;;;12.0;;
22673;SDS011;11504;43.334;21.918;2022-07-30T14:06:24;12.0;;;12.0;;
22673;SDS011;11504;43.334;21.918;2022-07-30T14:11:00;12.0;;;12.0;;
22673;SDS011;11504;43.334;21.918;2022-07-30T14:15:37;12.0;;;12.0;;
22673;SDS011;11504;43.334;21.918;2022-07-30T14:20:13;12.0;;;12.0;;
22673;SDS011;11504;43.334;21.918;2022-07-30T14:24:50;12.0;;;12.0;;
22673;SDS011;11504;43.334;21.918;2022-07-30T14:29:27;12.0;;;12.0;;
22673;SDS011;11504;43.334;21.918;2022-07-30T14:34:04;11.0;;;11.0;;
22673;SDS011;11504;43.334;21.918;2022-07-30T14:38:40;11.0;;;11.0;;
22673;SDS011;11504;43.334;21.918;2022-07-30T14:43:16;11.0;;;10.0;;
22673;SDS011;11504;43.334;21.918;2022-07-30T14:47:53;11.0;;;10.0;;
22673;SDS011;11504;43.334;21.918;2022-07-30T14:52:30;11.0;;;10.0;;
22673;SDS011;11504;43.334;21.918;2022-07-30T14:57:07;11.0;;;10.0;;
22673;SDS011;11504;43.334;21.918;2022-07-30T15:01:44;10.0;;;10.0;;
22673;SDS011;11504;43.334;21.918;2022-07-30T15:06:21;10.0;;;10.0;;
22673;SDS011;11504;43.334;21.918;2022-07-30T15:10:58;9.0;;;9.0;;
22673;SDS011;11504;43.334;21.918;2022-07-30T15:15:35;9.0;;;9.0;;
22673;SDS011;11504;43.334;21.918;2022-07-30T15:20:12;9.0;;;9.0;;
22673;SDS011;11504;43.334;21.918;2022-07-30T15:24:49;9.0;;;8.0;;
22673;SDS011;11504;43.334;21.918;2022-07-30T15:29:26;9.0;;;8.0;;
22673;SDS011;11504;43.334;21.918;2022-07-30T15:34:04;9.0;;;8.0;;
22673;SDS011;11504;43.334;21.918;2022-07-30T15:38:42;9.0;;;8.0;;
22673;SDS011;11504;43.334;21.918;2022-07-30T15:43:19;9.0;;;8.0;;
22673;SDS011;11504;43.334;21.918;2022-07-30T15:47:56;9.0;;;8.0;;
22673;SDS011;11504;43.334;21.918;2022-07-30T15:52:33;9.0;;;9.0;;
22673;SDS011;11504;43.334;21.918;2022-07-30T15:57:11;9.0;;;9.0;;
22673;SDS011;11504;43.334;21.918;2022-07-30T16:01:49;10.0;;;10.0;;
22673;SDS011;11504;43.334;21.918;2022-07-30T16:06:25;10.0;;;10.0;;
22673;SDS011;11504;43.334;21.918;2022-07-30T16:11:02;10.0;;;10.0;;
22673;SDS011;11504;43.334;21.918;2022-07-30T16:15:39;10.0;;;10.0;;
22673;SDS011;11504;43.334;21.918;2022-07-30T16:20:15;10.0;;;10.0;;
22673;SDS011;11504;43.334;21.918;2022-07-30T16:24:51;11.0;;;10.0;;
22673;SDS011;11504;43.334;21.918;2022-07-30T16:29:27;11.0;;;10.0;;
22673;SDS011;11504;43.334;21.918;2022-07-30T16:34:03;12.0;;;11.0;;
22673;SDS011;11504;43.334;21.918;2022-07-30T16:38:40;12.0;;;11.0;;
22673;SDS011;11504;43.334;21.918;2022-07-30T16:43:17;16.0;;;16.0;;
22673;SDS011;11504;43.334;21.918;2022-07-30T16:47:54;16.0;;;16.0;;
22673;SDS011;11504;43.334;21.918;2022-07-30T16:52:30;21.0;;;20.0;;
22673;SDS011;11504;43.334;21.918;2022-07-30T16:57:07;21.0;;;20.0;;
22673;SDS011;11504;43.334;21.918;2022-07-30T17:01:43;16.0;;;15.0;;
22673;SDS011;11504;43.334;21.918;2022-07-30T17:06:19;16.0;;;15.0;;
22673;SDS011;11504;43.334;21.918;2022-07-30T17:10:56;11.0;;;10.0;;
22673;SDS011;11504;43.334;21.918;2022-07-30T17:15:32;11.0;;;10.0;;
22673;SDS011;11504;43.334;21.918;2022-07-30T17:20:09;11.0;;;10.0;;
22673;SDS011;11504;43.334;21.918;2022-07-30T17:24:46;12.0;;;12.0;;
22673;SDS011;11504;43.334;21.918;2022-07-30T17:29:22;12.0;;;12.0;;
22673;SDS011;11504;43.334;21.918;2022-07-30T17:33:58;14.0;;;13.0;;
22673;SDS011;11504;43.334;21.918;2022-07-30T17:38:35;14.0;;;13.0;;
22673;SDS011;11504;43.334;21.918;2022-07-30T17:43:11;15.0;;;14.0;;
22673;SDS011;11504;43.334;21.918;2022-07-30T17:47:49;15.0;;;14.0;;
22673;SDS011;11504;43.334;21.918;2022-07-30T17:52:26;16.0;;;15.0;;
22673;SDS011;11504;43.334;21.918;2022-07-30T17:57:03;16.0;;;15.0;;
22673;SDS011;11504;43.334;21.918;2022-07-30T18:01:41;15.0;;;14.0;;
22673;SDS011;11504;43.334;21.918;2022-07-30T18:06:18;15.0;;;14.0;;
22673;SDS011;11504;43.334;21.918;2022-07-30T18:10:55;14.0;;;13.0;;
22673;SDS011;11504;43.334;21.918;2022-07-30T18:15:34;14.0;;;13.0;;
22673;SDS011;11504;43.334;21.918;2022-07-30T18:20:12;14.0;;;13.0;;
22673;SDS011;11504;43.334;21.918;2022-07-30T18:24:50;14.0;;;14.0;;
22673;SDS011;11504;43.334;21.918;2022-07-30T18:29:27;14.0;;;14.0;;
22673;SDS011;11504;43.334;21.918;2022-07-30T18:34:04;15.0;;;14.0;;
22673;SDS011;11504;43.334;21.918;2022-07-30T18:38:41;15.0;;;14.0;;
22673;SDS011;11504;43.334;21.918;2022-07-30T18:43:17;16.0;;;14.0;;
22673;SDS011;11504;43.334;21.918;2022-07-30T18:47:55;16.0;;;14.0;;
22673;SDS011;11504;43.334;21.918;2022-07-30T18:52:32;16.0;;;15.0;;
22673;SDS011;11504;43.334;21.918;2022-07-30T18:57:09;16.0;;;15.0;;
22673;SDS011;11504;43.334;21.918;2022-07-30T19:01:45;12.0;;;12.0;;
22673;SDS011;11504;43.334;21.918;2022-07-30T19:06:21;12.0;;;12.0;;
22673;SDS011;11504;43.334;21.918;2022-07-30T19:10:58;9.0;;;8.0;;
22673;SDS011;11504;43.334;21.918;2022-07-30T19:15:35;9.0;;;8.0;;
22673;SDS011;11504;43.334;21.918;2022-07-30T19:20:11;9.0;;;8.0;;
22673;SDS011;11504;43.334;21.918;2022-07-30T19:24:48;8.0;;;8.0;;
22673;SDS011;11504;43.334;21.918;2022-07-30T19:29:24;8.0;;;8.0;;
22673;SDS011;11504;43.334;21.918;2022-07-30T19:34:01;8.0;;;7.0;;
22673;SDS011;11504;43.334;21.918;2022-07-30T19:38:37;8.0;;;7.0;;
22673;SDS011;11504;43.334;21.918;2022-07-30T19:43:14;8.0;;;8.0;;
22673;SDS011;11504;43.334;21.918;2022-07-30T19:47:50;8.0;;;8.0;;
22673;SDS011;11504;43.334;21.918;2022-07-30T19:52:27;9.0;;;8.0;;
22673;SDS011;11504;43.334;21.918;2022-07-30T19:57:03;9.0;;;8.0;;
22673;SDS011;11504;43.334;21.918;2022-07-30T20:01:40;10.0;;;8.0;;
22673;SDS011;11504;43.334;21.918;2022-07-30T20:06:17;10.0;;;8.0;;
22673;SDS011;11504;43.334;21.918;2022-07-30T20:10:54;10.0;;;9.0;;
22673;SDS011;11504;43.334;21.918;2022-07-30T20:15:31;10.0;;;9.0;;
22673;SDS011;11504;43.334;21.918;2022-07-30T20:20:10;10.0;;;9.0;;
22673;SDS011;11504;43.334;21.918;2022-07-30T20:24:48;10.0;;;9.0;;
22673;SDS011;11504;43.334;21.918;2022-07-30T20:29:25;10.0;;;9.0;;
22673;SDS011;11504;43.334;21.918;2022-07-30T20:34:02;9.0;;;9.0;;
22673;SDS011;11504;43.334;21.918;2022-07-30T20:38:39;9.0;;;9.0;;
22673;SDS011;11504;43.334;21.918;2022-07-30T20:43:16;10.0;;;10.0;;
22673;SDS011;11504;43.334;21.918;2022-07-30T20:47:54;10.0;;;10.0;;
22673;SDS011;11504;43.334;21.918;2022-07-30T20:52:31;12.0;;;11.0;;
22673;SDS011;11504;43.334;21.918;2022-07-30T20:57:08;12.0;;;11.0;;
22673;SDS011;11504;43.334;21.918;2022-07-30T21:01:45;12.0;;;11.0;;
22673;SDS011;11504;43.334;21.918;2022-07-30T21:06:23;12.0;;;11.0;;
22673;SDS011;11504;43.334;21.918;2022-07-30T21:11:01;11.0;;;11.0;;
22673;SDS011;11504;43.334;21.918;2022-07-30T21:15:38;11.0;;;11.0;;
22673;SDS011;11504;43.334;21.918;2022-07-30T21:20:14;11.0;;;11.0;;
22673;SDS011;11504;43.334;21.918;2022-07-30T21:24:51;12.0;;;12.0;;
22673;SDS011;11504;43.334;21.918;2022-07-30T21:29:27;12.0;;;12.0;;
22673;SDS011;11504;43.334;21.918;2022-07-30T21:34:04;14.0;;;12.0;;
22673;SDS011;11504;43.334;21.918;2022-07-30T21:38:42;14.0;;;12.0;;
22673;SDS011;11504;43.334;21.918;2022-07-30T21:43:19;20.0;;;18.0;;
22673;SDS011;11504;43.334;21.918;2022-07-30T21:47:56;20.0;;;18.0;;
22673;SDS011;11504;43.334;21.918;2022-07-30T21:52:32;26.0;;;24.0;;
22673;SDS011;11504;43.334;21.918;2022-07-30T21:57:08;26.0;;;24.0;;
22673;SDS011;11504;43.334;21.918;2022-07-30T22:01:45;22.0;;;20.0;;
22673;SDS011;11504;43.334;21.918;2022-07-30T22:06:21;22.0;;;20.0;;
22673;SDS011;11504;43.334;21.918;2022-07-30T22:10:59;18.0;;;17.0;;
22673;SDS011;11504;43.334;21.918;2022-07-30T22:15:36;18.0;;;17.0;;
22673;SDS011;11504;43.334;21.918;2022-07-30T22:20:13;18.0;;;17.0;;
22673;SDS011;11504;43.334;21.918;2022-07-30T22:24:49;14.0;;;14.0;;
22673;SDS011;11504;43.334;21.918;2022-07-30T22:29:26;14.0;;;14.0;;
22673;SDS011;11504;43.334;21.918;2022-07-30T22:34:02;10.0;;;10.0;;
22673;SDS011;11504;43.334;21.918;2022-07-30T22:38:39;10.0;;;10.0;;
22673;SDS011;11504;43.334;21.918;2022-07-30T22:43:15;10.0;;;10.0;;
22673;SDS011;11504;43.334;21.918;2022-07-30T22:47:52;10.0;;;10.0;;
22673;SDS011;11504;43.334;21.918;2022-07-30T22:52:28;11.0;;;10.0;;
22673;SDS011;11504;43.334;21.918;2022-07-30T22:57:12;11.0;;;10.0;;
22673;SDS011;11504;43.334;21.918;2022-07-30T23:01:49;11.0;;;10.0;;
22673;SDS011;11504;43.334;21.918;2022-07-30T23:06:25;11.0;;;10.0;;
22673;SDS011;11504;43.334;21.918;2022-07-30T23:11:03;11.0;;;10.0;;
22673;SDS011;11504;43.334;21.918;2022-07-30T23:15:40;11.0;;;10.0;;
22673;SDS011;11504;43.334;21.918;2022-07-30T23:20:20;11.0;;;10.0;;
22673;SDS011;11504;43.334;21.918;2022-07-30T23:24:58;10.0;;;10.0;;
22673;SDS011;11504;43.334;21.918;2022-07-30T23:29:35;10.0;;;10.0;;
22673;SDS011;11504;43.334;21.918;2022-07-30T23:34:12;9.0;;;9.0;;
22673;SDS011;11504;43.334;21.918;2022-07-30T23:38:50;9.0;;;9.0;;
22673;SDS011;11504;43.334;21.918;2022-07-30T23:43:27;10.0;;;10.0;;
22673;SDS011;11504;43.334;21.918;2022-07-30T23:48:06;10.0;;;10.0;;
22673;SDS011;11504;43.334;21.918;2022-07-30T23:52:43;10.0;;;10.0;;
22673;SDS011;11504;43.334;21.918;2022-07-30T23:57:20;10.0;;;10.0;;
